Time;durP1;ratioP1;P1;durP2;ratioP2;P2;SDS_P1;SDS_P2;PMS_P1;PMS_P2;Temp;Humidity;BMP_temperature;BMP_pressure;BME280_temperature;BME280_humidity;BME280_pressure;Samples;Min_cycle;Max_cycle;Signal;HPM_P1;HPM_P2
2022/06/11 00:00:10;;;;;;;0.40;0.40;;;13.70;1.00;;;;;;5031621;28;20176;-76
2022/06/11 00:02:35;;;;;;;0.50;0.50;;;13.70;1.00;;;;;;5033496;28;20302;-75
2022/06/11 00:05:01;;;;;;;0.40;0.40;;;13.60;1.00;;;;;;5031394;28;20315;-75
2022/06/11 00:07:27;;;;;;;0.50;0.50;;;13.60;1.00;;;;;;5032139;28;20186;-75
2022/06/11 00:09:53;;;;;;;0.40;0.40;;;13.60;1.00;;;;;;5031647;28;20168;-75
2022/06/11 00:12:20;;;;;;;0.43;0.43;;;13.60;1.00;;;;;;5037043;28;20195;-75
2022/06/11 00:14:47;;;;;;;0.40;0.40;;;13.50;1.00;;;;;;5033398;28;20787;-75
2022/06/11 00:17:14;;;;;;;0.50;0.50;;;13.50;1.00;;;;;;5031920;28;20582;-76
2022/06/11 00:19:41;;;;;;;0.40;0.40;;;13.50;1.00;;;;;;5031203;28;20259;-74
2022/06/11 00:22:07;;;;;;;0.57;0.57;;;13.40;1.00;;;;;;5028765;28;20586;-75
2022/06/11 00:24:33;;;;;;;0.50;0.50;;;13.40;1.00;;;;;;5029648;28;20258;-76
2022/06/11 00:27:00;;;;;;;0.40;0.40;;;13.40;1.00;;;;;;5031588;28;20184;-75
2022/06/11 00:29:28;;;;;;;0.40;0.40;;;13.30;1.00;;;;;;5030747;28;20253;-75
2022/06/11 00:31:54;;;;;;;0.50;0.50;;;13.30;1.00;;;;;;5028484;28;20673;-75
2022/06/11 00:34:21;;;;;;;0.40;0.40;;;13.20;1.00;;;;;;5030728;28;20180;-75
2022/06/11 00:36:48;;;;;;;0.40;0.40;;;13.20;1.00;;;;;;5031659;28;20266;-75
2022/06/11 00:39:17;;;;;;;0.50;0.50;;;13.20;1.00;;;;;;5030840;28;20180;-75
2022/06/11 00:41:45;;;;;;;0.40;0.40;;;13.20;1.00;;;;;;5027169;28;20685;-75
2022/06/11 00:44:12;;;;;;;0.47;0.47;;;13.10;1.00;;;;;;5036951;28;20183;-75
2022/06/11 00:46:46;;;;;;;0.50;0.50;;;13.10;1.00;;;;;;5051136;28;20611;-74
2022/06/11 00:49:33;;;;;;;0.40;0.40;;;13.10;1.00;;;;;;5050867;28;20181;-75
2022/06/11 00:52:13;;;;;;;0.40;0.40;;;13.00;1.00;;;;;;5039131;28;20241;-74
2022/06/11 00:54:42;;;;;;;0.40;0.40;;;13.00;2.20;;;;;;5029618;28;20179;-75
2022/06/11 00:57:08;;;;;;;0.30;0.30;;;13.00;13.50;;;;;;5031468;28;20183;-76
2022/06/11 00:59:40;;;;;;;0.50;0.50;;;12.90;10.10;;;;;;5030830;28;20180;-75
2022/06/11 01:02:06;;;;;;;0.50;0.50;;;13.00;1.10;;;;;;5028030;28;20684;-75
2022/06/11 01:04:40;;;;;;;0.40;0.40;;;12.90;1.00;;;;;;5029136;28;20191;-75
2022/06/11 01:07:33;;;;;;;0.50;0.50;;;12.90;1.00;;;;;;5030927;28;20195;-75
2022/06/11 01:10:28;;;;;;;0.50;0.50;;;12.90;1.00;;;;;;5030605;28;20172;-76
2022/06/11 01:13:05;;;;;;;0.47;0.47;;;12.90;1.00;;;;;;5028788;28;20620;-76
2022/06/11 01:15:37;;;;;;;0.40;0.40;;;12.80;1.00;;;;;;5031332;28;20232;-75
2022/06/11 01:18:37;;;;;;;0.40;0.40;;;12.80;1.00;;;;;;5031247;28;20172;-76
2022/06/11 01:21:05;;;;;;;0.50;0.50;;;12.70;1.00;;;;;;5028608;28;20548;-76
2022/06/11 01:23:46;;;;;;;0.40;0.40;;;12.70;1.00;;;;;;5027660;28;20206;-75
2022/06/11 01:26:34;;;;;;;0.30;0.30;;;13.00;1.00;;;;;;5030981;28;20183;-76
2022/06/11 01:29:38;;;;;;;0.57;0.57;;;12.70;1.00;;;;;;5030380;28;20636;-76
2022/06/11 01:32:32;;;;;;;0.50;0.50;;;12.60;1.00;;;;;;5027483;28;20551;-76
2022/06/11 01:35:28;;;;;;;0.50;0.50;;;12.60;1.00;;;;;;5030017;28;20209;-76
2022/06/11 01:38:02;;;;;;;0.60;0.60;;;12.60;1.00;;;;;;5030758;28;20225;-76
2022/06/11 01:40:44;;;;;;;0.50;0.50;;;12.60;9.90;;;;;;5030174;28;20188;-75
2022/06/11 01:43:18;;;;;;;0.40;0.40;;;12.60;6.10;;;;;;5026860;28;20224;-75
2022/06/11 01:45:45;;;;;;;0.60;0.60;;;12.60;5.70;;;;;;5030562;28;20278;-75
2022/06/11 01:48:16;;;;;;;0.50;0.50;;;12.60;3.20;;;;;;5030807;28;20168;-75
2022/06/11 01:50:50;;;;;;;0.53;0.53;;;12.50;1.00;;;;;;5030137;28;20191;-76
2022/06/11 01:53:34;;;;;;;0.50;0.50;;;12.40;1.00;;;;;;5027947;28;20269;-75
2022/06/11 01:56:02;;;;;;;0.50;0.50;;;12.40;1.00;;;;;;5014891;28;20255;-75
2022/06/11 01:58:55;;;;;;;0.47;0.47;;;12.30;9.10;;;;;;5020697;28;20176;-75
2022/06/11 02:01:58;;;;;;;0.60;0.60;;;12.40;10.10;;;;;;5032356;28;20203;-75
2022/06/11 02:04:50;;;;;;;0.50;0.50;;;12.40;13.20;;;;;;5007792;28;20211;-75
2022/06/11 02:07:29;;;;;;;0.50;0.50;;;12.30;18.50;;;;;;5011544;28;20641;-75
2022/06/11 02:10:26;;;;;;;0.50;0.50;;;12.30;13.70;;;;;;5031129;28;20175;-75
2022/06/11 02:12:58;;;;;;;0.50;0.50;;;12.30;8.10;;;;;;5025848;28;20311;-76
2022/06/11 02:15:53;;;;;;;0.50;0.50;;;12.30;14.40;;;;;;5031977;28;20172;-76
2022/06/11 02:18:21;;;;;;;0.50;0.50;;;12.20;15.50;;;;;;5033956;28;20665;-76
2022/06/11 02:20:53;;;;;;;0.40;0.40;;;12.20;13.90;;;;;;5033581;28;20168;-75
2022/06/11 02:23:45;;;;;;;0.50;0.50;;;12.10;15.50;;;;;;5046484;28;20225;-75
2022/06/11 02:26:19;;;;;;;0.50;0.50;;;12.10;10.30;;;;;;5033726;28;20625;-74
2022/06/11 02:28:48;;;;;;;0.40;0.40;;;12.10;22.60;;;;;;5034082;28;20175;-76
2022/06/11 02:31:18;;;;;;;0.50;0.50;;;12.00;18.90;;;;;;5031378;28;20680;-74
2022/06/11 02:33:44;;;;;;;0.57;0.57;;;12.00;31.00;;;;;;5031525;28;20172;-74
2022/06/11 02:36:10;;;;;;;0.40;0.40;;;12.00;37.50;;;;;;5033632;28;20175;-76
2022/06/11 02:38:36;;;;;;;0.50;0.50;;;12.00;46.70;;;;;;5033572;28;20193;-76
2022/06/11 02:41:27;;;;;;;0.60;0.60;;;12.00;45.50;;;;;;5031486;28;20176;-76
2022/06/11 02:43:53;;;;;;;0.50;0.50;;;12.00;51.30;;;;;;5027058;28;20190;-77
2022/06/11 02:49:06;;;;;;;0.50;0.50;;;12.00;40.60;;;;;;5033211;28;20182;-76
2022/06/11 02:51:31;;;;;;;0.60;0.60;;;11.90;32.80;;;;;;5031137;28;20210;-76
2022/06/11 02:53:58;;;;;;;0.60;0.60;;;11.90;31.00;;;;;;5033228;28;20172;-76
2022/06/11 02:56:24;;;;;;;0.40;0.40;;;11.80;26.30;;;;;;5033338;28;20168;-76
2022/06/11 02:58:50;;;;;;;0.60;0.60;;;11.80;29.80;;;;;;5033576;28;20190;-75
2022/06/11 03:01:18;;;;;;;0.53;0.53;;;11.80;21.50;;;;;;5034003;28;20242;-76
2022/06/11 03:03:43;;;;;;;0.50;0.50;;;11.80;29.40;;;;;;5031647;28;20287;-76
2022/06/11 03:06:09;;;;;;;0.60;0.60;;;11.70;40.80;;;;;;5032305;28;20641;-76
2022/06/11 03:08:35;;;;;;;0.60;0.60;;;11.80;55.90;;;;;;5033225;28;20180;-75
2022/06/11 03:11:01;;;;;;;0.50;0.50;;;11.70;92.00;;;;;;5032617;28;20262;-75
2022/06/11 03:13:30;;;;;;;0.50;0.50;;;11.80;99.90;;;;;;5033081;28;20175;-75
2022/06/11 03:15:57;;;;;;;0.53;0.53;;;11.80;99.90;;;;;;5033022;28;20172;-75
2022/06/11 03:18:23;;;;;;;0.50;0.50;;;11.90;99.90;;;;;;5032837;28;20172;-75
2022/06/11 03:20:50;;;;;;;0.50;0.50;;;11.90;93.40;;;;;;5032558;28;20243;-76
2022/06/11 03:23:17;;;;;;;0.60;0.60;;;11.80;68.40;;;;;;5032967;28;20212;-76
2022/06/11 03:25:42;;;;;;;0.50;0.50;;;11.80;53.30;;;;;;5032956;28;20219;-75
2022/06/11 03:28:16;;;;;;;0.60;0.60;;;11.80;53.50;;;;;;5032866;28;20230;-76
2022/06/11 03:30:42;;;;;;;0.40;0.40;;;11.80;38.30;;;;;;5031186;28;20657;-76
2022/06/11 03:33:08;;;;;;;0.50;0.50;;;11.80;46.40;;;;;;5032617;28;20207;-76
2022/06/11 03:35:34;;;;;;;0.60;0.60;;;11.80;52.30;;;;;;5031282;28;20187;-75
2022/06/11 03:38:01;;;;;;;0.57;0.57;;;11.70;52.40;;;;;;5032436;28;20180;-75
2022/06/11 03:40:27;;;;;;;0.50;0.50;;;11.70;56.00;;;;;;5032172;28;20756;-76
2022/06/11 03:42:52;;;;;;;0.50;0.50;;;11.70;69.00;;;;;;5031992;28;20745;-76
2022/06/11 03:45:19;;;;;;;0.50;0.50;;;11.70;63.80;;;;;;5032330;28;20176;-75
2022/06/11 03:47:45;;;;;;;0.60;0.60;;;11.70;67.50;;;;;;5032637;28;20210;-76
2022/06/11 03:50:18;;;;;;;0.50;0.50;;;11.80;75.30;;;;;;5031986;28;20175;-76
2022/06/11 03:52:44;;;;;;;0.50;0.50;;;11.80;73.80;;;;;;5032140;28;20191;-76
2022/06/11 03:55:10;;;;;;;0.70;0.70;;;11.80;68.00;;;;;;5032231;28;20230;-75
2022/06/11 03:57:36;;;;;;;0.60;0.60;;;11.80;83.10;;;;;;5032257;28;20176;-76
2022/06/11 04:00:08;;;;;;;0.60;0.60;;;11.80;73.60;;;;;;5031475;28;20222;-75
2022/06/11 04:02:34;;;;;;;0.60;0.60;;;11.80;85.50;;;;;;5032026;28;20646;-76
2022/06/11 04:05:00;;;;;;;0.60;0.60;;;11.80;96.60;;;;;;5032145;28;20206;-76
2022/06/11 04:07:26;;;;;;;0.47;0.47;;;11.80;99.90;;;;;;5032174;28;20180;-76
2022/06/11 04:09:51;;;;;;;0.60;0.60;;;11.90;99.90;;;;;;5031545;28;20207;-75
2022/06/11 04:12:18;;;;;;;0.50;0.50;;;11.90;99.90;;;;;;5031805;28;20727;-76
2022/06/11 04:14:46;;;;;;;0.50;0.50;;;11.90;99.90;;;;;;5031950;28;20717;-76
2022/06/11 04:17:19;;;;;;;0.50;0.50;;;12.00;99.90;;;;;;5031692;28;20214;-76
2022/06/11 04:19:47;;;;;;;0.43;0.43;;;12.10;99.90;;;;;;5031396;28;20175;-76
2022/06/11 04:22:14;;;;;;;0.50;0.50;;;12.20;99.90;;;;;;5031623;28;20216;-75
2022/06/11 04:24:40;;;;;;;0.50;0.50;;;12.20;99.90;;;;;;5031597;28;20172;-75
2022/06/11 04:27:08;;;;;;;0.50;0.50;;;12.30;99.90;;;;;;5031460;28;20183;-75
2022/06/11 04:29:37;;;;;;;0.50;0.50;;;12.40;99.90;;;;;;5031009;28;20176;-76
2022/06/11 04:32:07;;;;;;;0.50;0.50;;;12.50;99.90;;;;;;5031278;28;20210;-76
2022/06/11 04:34:33;;;;;;;0.50;0.50;;;12.60;99.90;;;;;;5031417;28;20183;-75
2022/06/11 04:36:59;;;;;;;0.50;0.50;;;12.60;99.90;;;;;;5031482;28;20186;-76
2022/06/11 04:39:27;;;;;;;0.50;0.50;;;12.50;99.90;;;;;;5031098;28;20178;-76
2022/06/11 04:41:53;;;;;;;0.43;0.43;;;12.50;99.90;;;;;;5031171;28;20223;-75
2022/06/11 04:44:19;;;;;;;0.50;0.50;;;12.50;99.90;;;;;;5031432;28;20556;-76
2022/06/11 04:46:45;;;;;;;0.40;0.40;;;12.60;99.90;;;;;;5031386;28;20680;-76
2022/06/11 04:49:11;;;;;;;0.40;0.40;;;12.60;99.90;;;;;;5030869;28;20625;-75
2022/06/11 04:51:37;;;;;;;0.40;0.40;;;12.60;99.90;;;;;;5030825;28;20203;-75
2022/06/11 04:54:03;;;;;;;0.40;0.40;;;12.80;99.90;;;;;;5031191;28;20595;-75
2022/06/11 04:56:30;;;;;;;0.40;0.40;;;12.80;99.90;;;;;;5031143;28;20179;-76
2022/06/11 04:58:56;;;;;;;0.40;0.40;;;12.90;99.90;;;;;;5030526;28;20182;-75
2022/06/11 05:01:22;;;;;;;0.50;0.50;;;13.00;99.90;;;;;;5030966;28;20195;-75
2022/06/11 05:03:48;;;;;;;0.40;0.40;;;13.10;99.90;;;;;;5031461;28;20187;-75
2022/06/11 05:06:18;;;;;;;0.50;0.50;;;13.10;99.90;;;;;;5031045;28;20183;-75
2022/06/11 05:08:44;;;;;;;0.50;0.50;;;13.10;99.90;;;;;;5030896;28;20180;-75
2022/06/11 05:11:10;;;;;;;0.40;0.40;;;13.30;99.90;;;;;;5030707;28;20180;-76
2022/06/11 05:13:35;;;;;;;0.60;0.60;;;13.50;99.90;;;;;;5031089;28;20335;-75
2022/06/11 05:16:01;;;;;;;0.40;0.40;;;13.50;89.70;;;;;;5031260;28;20210;-76
2022/06/11 05:18:28;;;;;;;0.50;0.50;;;13.50;79.40;;;;;;5031126;28;20172;-75
2022/06/11 05:20:54;;;;;;;0.43;0.43;;;13.60;88.00;;;;;;5030304;28;20696;-75
2022/06/11 05:23:20;;;;;;;0.43;0.43;;;13.60;92.60;;;;;;5030779;28;20207;-75
2022/06/11 05:25:47;;;;;;;0.40;0.40;;;13.60;99.90;;;;;;5031068;28;20226;-75
2022/06/11 05:28:21;;;;;;;0.40;0.40;;;13.60;64.40;;;;;;5031753;28;20182;-75
2022/06/11 05:30:47;;;;;;;0.50;0.50;;;13.60;75.10;;;;;;5034406;28;20210;-77
2022/06/11 05:33:13;;;;;;;0.40;0.40;;;13.70;68.90;;;;;;5034778;28;20571;-75
2022/06/11 05:35:39;;;;;;;0.40;0.40;;;13.90;88.00;;;;;;5034776;28;20181;-78
2022/06/11 05:38:08;;;;;;;0.40;0.40;;;14.10;23.60;;;;;;5035061;28;20521;-76
2022/06/11 05:40:38;;;;;;;0.40;0.40;;;14.20;1.00;;;;;;5034399;28;20186;-76
2022/06/11 05:43:05;;;;;;;0.40;0.40;;;14.10;4.00;;;;;;5034800;28;20312;-77
2022/06/11 05:45:42;;;;;;;0.40;0.40;;;14.10;38.90;;;;;;5030520;28;20185;-76
2022/06/11 05:48:09;;;;;;;0.50;0.50;;;14.30;6.00;;;;;;5034173;28;20172;-75
2022/06/11 05:50:39;;;;;;;0.47;0.47;;;14.40;3.10;;;;;;5034310;28;20176;-76
2022/06/11 05:53:06;;;;;;;0.40;0.40;;;14.70;1.00;;;;;;5034710;28;20211;-75
2022/06/11 05:55:37;;;;;;;0.30;0.30;;;14.80;1.00;;;;;;5034542;28;20719;-76
2022/06/11 05:58:09;;;;;;;0.50;0.50;;;14.90;1.00;;;;;;5034465;28;20633;-76
2022/06/11 06:00:35;;;;;;;0.30;0.30;;;15.00;1.00;;;;;;5034154;28;20636;-75
2022/06/11 06:03:01;;;;;;;0.47;0.47;;;15.00;1.00;;;;;;5034317;28;20259;-76
2022/06/11 06:05:28;;;;;;;0.40;0.40;;;15.10;1.00;;;;;;5034603;28;20256;-75
2022/06/11 06:07:54;;;;;;;0.30;0.30;;;15.40;1.00;;;;;;5034542;28;20203;-76
2022/06/11 06:10:21;;;;;;;0.50;0.50;;;15.50;1.00;;;;;;5033865;28;20272;-76
2022/06/11 06:12:47;;;;;;;0.40;0.40;;;15.40;1.00;;;;;;5033961;28;20234;-76
2022/06/11 06:15:16;;;;;;;0.30;0.30;;;15.50;1.00;;;;;;5032987;28;20211;-75
2022/06/11 06:17:42;;;;;;;0.30;0.30;;;15.60;1.00;;;;;;5032432;28;20711;-76
2022/06/11 06:20:11;;;;;;;0.50;0.50;;;15.80;1.00;;;;;;5033508;28;20176;-77
2022/06/11 06:22:38;;;;;;;0.50;0.50;;;15.90;1.00;;;;;;5033595;28;20222;-76
2022/06/11 06:25:04;;;;;;;0.30;0.30;;;16.20;1.00;;;;;;5034596;28;20222;-77
2022/06/11 06:27:29;;;;;;;0.40;0.40;;;16.50;1.00;;;;;;5035517;28;20179;-77
2022/06/11 06:29:55;;;;;;;0.30;0.30;;;16.70;99.90;;;;;;5033844;28;20575;-77
2022/06/11 06:32:21;;;;;;;0.47;0.47;;;16.80;1.00;;;;;;5034309;28;20195;-76
2022/06/11 06:34:46;;;;;;;0.40;0.40;;;17.00;99.90;;;;;;5034292;28;20203;-76
2022/06/11 06:37:12;;;;;;;0.40;0.40;;;17.00;1.00;;;;;;5033266;28;20242;-77
2022/06/11 06:39:37;;;;;;;0.40;0.40;;;17.00;99.90;;;;;;5034074;28;20188;-77
2022/06/11 06:42:04;;;;;;;0.30;0.30;;;17.10;12.10;;;;;;5034478;28;20672;-77
2022/06/11 06:44:29;;;;;;;0.40;0.40;;;17.10;1.00;;;;;;5034691;28;20176;-76
2022/06/11 06:46:55;;;;;;;0.40;0.40;;;17.30;1.00;;;;;;5036269;28;20171;-77
2022/06/11 06:49:20;;;;;;;0.40;0.40;;;17.40;18.50;;;;;;5036426;28;20176;-77
2022/06/11 06:51:46;;;;;;;0.40;0.40;;;17.40;99.90;;;;;;5036413;28;20282;-76
2022/06/11 06:54:12;;;;;;;0.40;0.40;;;17.40;1.00;;;;;;5036370;28;20592;-76
2022/06/11 06:56:37;;;;;;;0.40;0.40;;;17.50;51.30;;;;;;5035501;28;20180;-77
2022/06/11 06:59:04;;;;;;;0.40;0.40;;;17.80;1.00;;;;;;5034139;28;20187;-77
2022/06/11 07:01:31;;;;;;;0.40;0.40;;;17.90;99.90;;;;;;5033279;28;20199;-77
2022/06/11 07:03:57;;;;;;;0.40;0.40;;;18.20;1.00;;;;;;5034406;28;20641;-77
2022/06/11 07:06:23;;;;;;;0.40;0.40;;;18.60;51.60;;;;;;5035071;28;20231;-77
2022/06/11 07:08:53;;;;;;;0.30;0.30;;;18.90;99.90;;;;;;5038392;28;20700;-77
2022/06/11 07:11:20;;;;;;;0.30;0.30;;;19.10;1.00;;;;;;5037992;28;20196;-78
2022/06/11 07:13:46;;;;;;;0.37;0.37;;;19.20;1.00;;;;;;5036984;28;20180;-76
2022/06/11 07:16:14;;;;;;;0.30;0.30;;;19.40;99.90;;;;;;5033717;28;20184;-76
2022/06/11 07:18:44;;;;;;;0.40;0.40;;;19.60;99.90;;;;;;5032779;28;20637;-77
2022/06/11 07:21:17;;;;;;;0.40;0.40;;;19.80;1.00;;;;;;5032756;28;20700;-74
2022/06/11 07:23:52;;;;;;;0.30;0.30;;;19.80;1.00;;;;;;5031360;28;20222;-74
2022/06/11 07:26:23;;;;;;;0.30;0.30;;;19.90;1.00;;;;;;5029884;28;20538;-75
2022/06/11 07:28:58;;;;;;;0.40;0.40;;;20.00;1.00;;;;;;5032157;28;20632;-76
2022/06/11 07:31:24;;;;;;;0.30;0.30;;;20.00;1.00;;;;;;5032415;28;20908;-77
2022/06/11 07:33:50;;;;;;;0.30;0.30;;;20.10;99.90;;;;;;5032704;28;20184;-76
2022/06/11 07:36:17;;;;;;;0.40;0.40;;;20.20;99.90;;;;;;5031992;28;20186;-76
2022/06/11 07:38:42;;;;;;;0.30;0.30;;;20.40;99.90;;;;;;5032012;28;20237;-76
2022/06/11 07:41:08;;;;;;;0.30;0.30;;;20.50;99.90;;;;;;5032236;28;20701;-76
2022/06/11 07:43:34;;;;;;;0.30;0.30;;;20.60;99.90;;;;;;5032700;28;20242;-77
2022/06/11 07:46:00;;;;;;;0.37;0.37;;;21.10;99.90;;;;;;5032285;28;20183;-76
2022/06/11 07:48:26;;;;;;;0.30;0.30;;;21.50;1.00;;;;;;5032344;28;20176;-76
2022/06/11 07:50:52;;;;;;;0.30;0.30;;;21.70;1.00;;;;;;5031420;28;20233;-76
2022/06/11 07:53:19;;;;;;;0.30;0.30;;;21.80;1.00;;;;;;5032312;28;20180;-77
2022/06/11 07:55:47;;;;;;;0.30;0.30;;;22.10;1.00;;;;;;5032490;28;20175;-77
2022/06/11 07:58:15;;;;;;;0.40;0.40;;;22.60;1.00;;;;;;5031954;28;20183;-77
2022/06/11 08:00:43;;;;;;;0.40;0.40;;;23.20;1.00;;;;;;5031856;28;20180;-76
2022/06/11 08:03:10;;;;;;;0.20;0.20;;;23.60;1.00;;;;;;5031972;28;20219;-77
2022/06/11 08:05:36;;;;;;;0.53;0.50;;;24.00;1.00;;;;;;5032394;28;20230;-77
2022/06/11 08:08:03;;;;;;;0.30;0.30;;;24.40;1.00;;;;;;5032565;28;20172;-76
2022/06/11 08:10:30;;;;;;;0.40;0.40;;;24.60;1.00;;;;;;5031981;28;20176;-77
2022/06/11 08:12:56;;;;;;;0.40;0.40;;;24.50;1.00;;;;;;5032023;28;20214;-77
2022/06/11 08:15:22;;;;;;;0.40;0.40;;;24.70;1.00;;;;;;5032536;28;20281;-77
2022/06/11 08:17:47;;;;;;;0.40;0.40;;;25.00;1.00;;;;;;5032318;28;20641;-76
2022/06/11 08:20:19;;;;;;;0.30;0.30;;;25.20;1.00;;;;;;5031571;28;20645;-77
2022/06/11 08:22:45;;;;;;;0.40;0.40;;;25.40;1.00;;;;;;5032120;28;20579;-77
2022/06/11 08:25:11;;;;;;;0.40;0.40;;;25.70;1.00;;;;;;5032240;28;20179;-77
2022/06/11 08:27:36;;;;;;;0.30;0.30;;;26.20;1.00;;;;;;5032298;28;20210;-77
2022/06/11 08:30:03;;;;;;;0.43;0.43;;;26.30;1.00;;;;;;5031523;28;20249;-77
2022/06/11 08:32:29;;;;;;;0.37;0.37;;;26.30;1.00;;;;;;5032197;28;20239;-77
2022/06/11 08:34:54;;;;;;;0.30;0.30;;;26.20;1.00;;;;;;5031913;28;20199;-77
2022/06/11 08:37:20;;;;;;;0.37;0.37;;;26.30;1.00;;;;;;5032214;28;20179;-77
2022/06/11 08:39:45;;;;;;;0.30;0.30;;;26.60;1.00;;;;;;5031455;28;20219;-77
2022/06/11 08:42:35;;;;;;;0.40;0.40;;;26.70;1.00;;;;;;5033671;28;20216;-75
2022/06/11 08:45:05;;;;;;;0.30;0.30;;;26.80;1.00;;;;;;5031544;28;20242;-76
2022/06/11 08:47:43;;;;;;;0.60;0.60;;;26.70;1.00;;;;;;5031436;28;20172;-76
2022/06/11 08:50:14;;;;;;;0.40;0.40;;;27.00;1.00;;;;;;5031210;28;20176;-76
2022/06/11 08:52:40;;;;;;;0.47;0.47;;;27.10;1.00;;;;;;5031302;28;20649;-76
2022/06/11 08:55:06;;;;;;;0.40;0.40;;;27.20;1.00;;;;;;5031286;28;20171;-76
2022/06/11 08:57:56;;;;;;;0.40;0.40;;;27.20;1.00;;;;;;5031234;28;20180;-75
2022/06/11 09:00:40;;;;;;;0.43;0.43;;;26.80;1.00;;;;;;5030920;28;20190;-75
2022/06/11 09:03:50;;;;;;;0.50;0.50;;;26.70;1.00;;;;;;5030848;28;20302;-75
2022/06/11 09:06:31;;;;;;;0.53;0.53;;;26.90;1.00;;;;;;5002862;28;20184;-75
2022/06/11 09:09:05;;;;;;;0.50;0.50;;;27.30;1.00;;;;;;5030640;28;20601;-75
2022/06/11 09:11:49;;;;;;;0.30;0.30;;;27.60;1.00;;;;;;5031181;28;20203;-75
2022/06/11 09:14:43;;;;;;;0.50;0.50;;;27.70;1.00;;;;;;5030949;28;20646;-76
2022/06/11 09:17:18;;;;;;;0.40;0.40;;;28.10;1.00;;;;;;5031331;28;20176;-76
2022/06/11 09:20:13;;;;;;;0.47;0.47;;;28.30;1.00;;;;;;5030694;28;20178;-76
2022/06/11 09:22:56;;;;;;;0.40;0.40;;;28.20;1.00;;;;;;5030916;28;20225;-76
2022/06/11 09:25:36;;;;;;;0.50;0.50;;;28.20;1.00;;;;;;5031053;28;20706;-76
2022/06/11 09:28:17;;;;;;;0.53;0.53;;;28.40;1.00;;;;;;5031350;28;20175;-76
2022/06/11 09:30:47;;;;;;;0.50;0.50;;;28.50;1.00;;;;;;5030689;28;20194;-76
2022/06/11 09:33:44;;;;;;;0.40;0.40;;;28.30;1.00;;;;;;5031151;28;20233;-76
2022/06/11 09:36:22;;;;;;;0.30;0.30;;;28.20;1.00;;;;;;5079467;22;20284;-80
2022/06/11 09:39:06;;;;;;;0.40;0.40;;;27.90;1.00;;;;;;5086358;28;20524;-79
2022/06/11 09:41:46;;;;;;;0.50;0.50;;;27.70;1.00;;;;;;5083868;28;20216;-80
2022/06/11 09:44:17;;;;;;;0.47;0.47;;;27.60;1.00;;;;;;5079557;28;20191;-81
2022/06/11 09:47:19;;;;;;;0.40;0.40;;;27.60;1.00;;;;;;5068531;28;20254;-80
2022/06/11 09:50:13;;;;;;;0.47;0.47;;;28.10;1.00;;;;;;5061635;28;20459;-81
2022/06/11 09:52:53;;;;;;;0.50;0.50;;;28.70;1.00;;;;;;5063942;28;20277;-79
2022/06/11 09:55:35;;;;;;;0.40;0.40;;;29.00;1.00;;;;;;5073525;28;20201;-77
2022/06/11 09:58:20;;;;;;;0.60;0.60;;;29.10;1.00;;;;;;5072372;28;20174;-79
2022/06/11 10:00:59;;;;;;;0.50;0.50;;;29.50;1.00;;;;;;5072194;28;20188;-78
2022/06/11 10:03:32;;;;;;;0.60;0.60;;;29.50;1.00;;;;;;5074956;28;20210;-76
2022/06/11 10:06:16;;;;;;;0.43;0.43;;;29.80;1.00;;;;;;5072128;28;20179;-77
2022/06/11 10:09:03;;;;;;;0.60;0.60;;;29.80;1.00;;;;;;5071606;28;20179;-77
2022/06/11 10:11:39;;;;;;;0.50;0.50;;;30.10;1.00;;;;;;5070801;28;20206;-75
2022/06/11 10:16:58;;;;;;;0.50;0.50;;;30.40;1.00;;;;;;5075305;28;20255;-77
2022/06/11 10:19:40;;;;;;;0.60;0.60;;;30.30;1.00;;;;;;5074353;28;20635;-79
2022/06/11 10:22:20;;;;;;;0.60;0.60;;;30.40;1.00;;;;;;5074901;28;20205;-76
2022/06/11 10:25:04;;;;;;;0.40;0.40;;;30.60;1.00;;;;;;5075907;28;20241;-77
2022/06/11 10:27:34;;;;;;;0.40;0.40;;;30.70;1.00;;;;;;5067850;28;20177;-78
2022/06/11 10:30:11;;;;;;;0.50;0.50;;;30.40;1.00;;;;;;5068277;28;20171;-77
2022/06/11 10:32:42;;;;;;;0.50;0.50;;;30.60;1.00;;;;;;5075268;28;20194;-77
2022/06/11 10:35:10;;;;;;;0.53;0.53;;;30.80;1.00;;;;;;5077835;28;20222;-77
2022/06/11 10:37:45;;;;;;;0.50;0.50;;;30.70;1.00;;;;;;5061792;28;20175;-77
2022/06/11 10:40:26;;;;;;;0.60;0.60;;;30.60;1.00;;;;;;5074678;28;20178;-77
2022/06/11 10:43:08;;;;;;;0.60;0.60;;;30.00;1.00;;;;;;5076153;28;20223;-78
2022/06/11 10:45:34;;;;;;;0.60;0.60;;;29.70;1.00;;;;;;5071256;28;20181;-78
2022/06/11 10:48:01;;;;;;;0.50;0.50;;;29.20;1.00;;;;;;5066926;28;20691;-78
2022/06/11 10:50:35;;;;;;;0.60;0.60;;;28.70;1.00;;;;;;5067008;28;20177;-79
2022/06/11 10:53:19;;;;;;;0.53;0.53;;;28.60;1.00;;;;;;5060007;28;20291;-77
2022/06/11 10:55:48;;;;;;;0.40;0.40;;;29.00;1.00;;;;;;5071482;28;20178;-77
2022/06/11 10:58:30;;;;;;;0.60;0.60;;;29.40;1.00;;;;;;5066195;28;20585;-77
2022/06/11 11:01:12;;;;;;;0.60;0.60;;;29.60;1.00;;;;;;5078419;28;20186;-77
2022/06/11 11:03:46;;;;;;;0.60;0.60;;;29.60;1.00;;;;;;5083235;28;20202;-76
2022/06/11 11:06:28;;;;;;;0.50;0.50;;;29.60;1.00;;;;;;5076854;28;20180;-75
2022/06/11 11:09:00;;;;;;;0.60;0.60;;;29.80;1.00;;;;;;5073451;28;20174;-77
2022/06/11 11:11:32;;;;;;;0.50;0.50;;;30.20;1.00;;;;;;5072021;28;20205;-76
2022/06/11 11:14:14;;;;;;;0.57;0.57;;;30.50;1.00;;;;;;5065972;28;20179;-77
2022/06/11 11:16:47;;;;;;;0.40;0.40;;;30.20;1.00;;;;;;5075573;28;20194;-77
2022/06/11 11:19:28;;;;;;;0.50;0.50;;;30.20;1.00;;;;;;5074032;28;20218;-77
2022/06/11 11:22:05;;;;;;;0.60;0.60;;;30.20;1.00;;;;;;5057134;28;20546;-77
2022/06/11 11:24:36;;;;;;;0.40;0.40;;;30.40;1.00;;;;;;5068563;28;20171;-77
2022/06/11 11:27:06;;;;;;;0.60;0.60;;;30.70;1.00;;;;;;5063403;28;20207;-77
2022/06/11 11:29:38;;;;;;;0.57;0.57;;;30.20;1.00;;;;;;5077585;28;20175;-77
2022/06/11 11:32:33;;;;;;;0.53;0.53;;;29.50;1.00;;;;;;5075012;28;20195;-78
2022/06/11 11:35:14;;;;;;;0.50;0.50;;;28.50;1.00;;;;;;5081657;28;20274;-78
2022/06/11 11:37:39;;;;;;;0.47;0.47;;;28.00;1.00;;;;;;5075790;28;20179;-79
2022/06/11 11:40:42;;;;;;;0.33;0.33;;;28.20;1.00;;;;;;5071721;28;20206;-79
2022/06/11 11:43:11;;;;;;;0.40;0.40;;;28.60;1.00;;;;;;5070389;28;20233;-78
2022/06/11 11:45:53;;;;;;;0.40;0.40;;;28.60;1.00;;;;;;5078692;28;20178;-79
2022/06/11 11:48:33;;;;;;;0.40;0.40;;;28.80;1.00;;;;;;5076369;28;20179;-78
2022/06/11 11:51:08;;;;;;;0.30;0.30;;;29.50;1.00;;;;;;5062259;28;20194;-78
2022/06/11 11:53:44;;;;;;;0.40;0.40;;;30.10;1.00;;;;;;5070819;28;20196;-75
2022/06/11 11:56:35;;;;;;;0.60;0.60;;;30.40;1.00;;;;;;5072920;28;20228;-74
2022/06/11 11:59:19;;;;;;;0.43;0.43;;;30.10;1.00;;;;;;5070167;28;20183;-75
2022/06/11 12:01:46;;;;;;;0.40;0.40;;;30.30;1.00;;;;;;5067565;28;20198;-76
2022/06/11 12:04:33;;;;;;;0.40;0.40;;;30.60;1.00;;;;;;5067088;28;20606;-75
2022/06/11 12:07:03;;;;;;;0.40;0.40;;;30.60;1.00;;;;;;5052429;28;20525;-75
2022/06/11 12:09:39;;;;;;;0.50;0.50;;;30.50;1.00;;;;;;5051898;28;20186;-77
2022/06/11 12:12:13;;;;;;;0.50;0.50;;;30.50;1.00;;;;;;5071665;28;20190;-76
2022/06/11 12:14:46;;;;;;;0.60;0.60;;;30.40;1.00;;;;;;5072360;28;20174;-76
2022/06/11 12:17:24;;;;;;;0.53;0.53;;;30.80;1.00;;;;;;5072143;28;20254;-76
2022/06/11 12:19:56;;;;;;;0.50;0.50;;;31.00;1.00;;;;;;5065986;28;20323;-76
2022/06/11 12:22:28;;;;;;;0.60;0.60;;;31.10;1.00;;;;;;5067603;28;20595;-76
2022/06/11 12:24:55;;;;;;;0.50;0.50;;;31.40;1.00;;;;;;5070068;28;20655;-75
2022/06/11 12:27:39;;;;;;;0.50;0.50;;;31.40;1.00;;;;;;5070530;28;20225;-75
2022/06/11 12:30:16;;;;;;;0.50;0.50;;;31.60;1.00;;;;;;5064633;28;20266;-75
2022/06/11 12:32:42;;;;;;;0.60;0.60;;;31.60;1.00;;;;;;5071769;28;20277;-76
2022/06/11 12:35:17;;;;;;;0.40;0.40;;;31.50;1.00;;;;;;5071800;28;20224;-76
2022/06/11 12:38:10;;;;;;;0.60;0.60;;;31.20;1.00;;;;;;5053297;28;20174;-76
2022/06/11 12:41:15;;;;;;;0.40;0.40;;;31.00;1.00;;;;;;5070873;28;20461;-74
2022/06/11 12:44:01;;;;;;;0.60;0.60;;;30.00;1.00;;;;;;5071481;28;20575;-75
2022/06/11 12:46:36;;;;;;;0.50;0.50;;;29.50;1.00;;;;;;5058761;28;20192;-76
2022/06/11 12:49:31;;;;;;;0.50;0.50;;;29.20;1.00;;;;;;5063640;28;20264;-76
2022/06/11 12:52:21;;;;;;;0.40;0.40;;;29.20;1.00;;;;;;5065374;28;20195;-76
2022/06/11 12:55:04;;;;;;;0.40;0.40;;;29.30;1.00;;;;;;5060204;28;20171;-77
2022/06/11 12:57:36;;;;;;;0.50;0.50;;;29.30;1.00;;;;;;5064444;28;20175;-77
2022/06/11 13:00:14;;;;;;;0.50;0.50;;;29.60;1.00;;;;;;5057394;28;20316;-77
2022/06/11 13:02:55;;;;;;;0.60;0.60;;;29.80;1.00;;;;;;5055461;28;20614;-76
2022/06/11 13:05:59;;;;;;;0.60;0.60;;;29.70;1.00;;;;;;5066493;28;20543;-76
2022/06/11 13:08:43;;;;;;;0.60;0.60;;;30.10;1.00;;;;;;5060804;28;20191;-77
2022/06/11 13:11:42;;;;;;;0.33;0.33;;;30.40;1.00;;;;;;5069855;28;20179;-78
2022/06/11 13:14:43;;;;;;;0.70;0.70;;;30.40;1.00;;;;;;5069198;28;20194;-77
2022/06/11 13:17:38;;;;;;;0.60;0.60;;;30.40;1.00;;;;;;5069574;28;20208;-77
2022/06/11 13:20:21;;;;;;;0.50;0.50;;;30.70;1.00;;;;;;5043198;28;20194;-77
2022/06/11 13:23:04;;;;;;;0.57;0.57;;;30.80;1.00;;;;;;5063564;28;20206;-76
2022/06/11 13:25:29;;;;;;;0.50;0.50;;;31.00;1.00;;;;;;5063110;28;20635;-75
2022/06/11 13:28:34;;;;;;;0.50;0.50;;;31.10;1.00;;;;;;5063738;28;20185;-77